Vyacheslav Tikhonov — UBSH6 — position and weather

sailwx.info

Track history (hours):
 
Tides and Currents Weather Stations Pressure Air Temp Water Temp Dewpoint Dewpoint Depression Visibility Wind Speed Wind Dir Waves Ship Positions

Vyacheslav Tikhonov

Last reported at 2014-Nov-23 11:32 UTC. Time now 2014-Dec-22 18:30 UTC.
Position N 37°27' E 010°47'.
Warning: this ship's position is 29 days out of date.

Length 84 m; draft 6.8 m.

Type: Other ship. MMSI: 273350140.

Date/timePositionNaut miles runAvg speedWind from/ knotsBaromVisibWave heightAir tempDewpointWater temp
2014-Nov-23 11:32N 37°27' E 010°47'1512.4
2014-Nov-23 10:22N 37°31' E 010°30'1012.2
2014-Nov-23 09:31N 37°33' E 010°17'1612.4
2014-Nov-23 08:13N 37°34' E 009°57'912.3
2014-Nov-23 07:31N 37°35' E 009°46'1212.5
2014-Nov-23 06:33N 37°37' E 009°31'1212.4
2014-Nov-23 05:33N 37°38' E 009°15'1312.3
2014-Nov-23 04:29N 37°37' E 008°59'1312.3
2014-Nov-23 03:27N 37°37' E 008°43'1112.5
2014-Nov-23 02:33N 37°37' E 008°28'1312.5
2014-Nov-23 01:32N 37°36' E 008°12'1412.4
2014-Nov-23 00:24N 37°36' E 007°55'1612.3
2014-Nov-22 23:06N 37°36' E 007°34'712.4
2014-Nov-22 22:33N 37°36' E 007°26'37712.4
2014-Nov-21 16:12N 36°37' W 000°22'239 9.7
2014-Nov-20 15:33N 36°00' W 005°15'10 9.4
2014-Nov-20 14:32N 36°07' W 005°23'2 2.1
2014-Nov-20 13:27N 36°09' W 005°22'0 0.0
2014-Nov-20 09:18N 36°09' W 005°22'0 0.0
2014-Nov-20 08:21N 36°09' W 005°22'0 0.0
2014-Nov-20 07:21N 36°09' W 005°22'0 0.1
2014-Nov-20 05:27N 36°09' W 005°22'0 0.0
2014-Nov-20 04:27N 36°09' W 005°22'0 0.0
2014-Nov-20 03:30N 36°09' W 005°22'0 0.0
2014-Nov-20 02:33N 36°09' W 005°22'0 0.0
2014-Nov-20 01:33N 36°09' W 005°22'0 0.0
2014-Nov-20 00:33N 36°09' W 005°22'0 0.0
2014-Nov-19 23:33N 36°09' W 005°22'0 0.0
2014-Nov-19 22:33N 36°09' W 005°22'0 0.0
2014-Nov-19 21:33N 36°09' W 005°22'0 0.0
2014-Nov-19 20:27N 36°09' W 005°22'0 0.0
2014-Nov-19 19:33N 36°09' W 005°22'0 0.3
2014-Nov-19 18:33N 36°09' W 005°22'6 6.3
2014-Nov-19 17:33N 36°02' W 005°20'7 6.4
2014-Nov-19 16:32N 35°58' W 005°26'  
Track history (hours):
 
Tides and Currents Weather Stations Pressure Air Temp Water Temp Dewpoint Dewpoint Depression Visibility Wind Speed Wind Dir Waves Ship Positions

Vyacheslav Tikhonov

Last reported at 2014-Nov-23 11:32 UTC. Time now 2014-Dec-22 18:30 UTC.
Position N 37°27' E 010°47'.
Warning: this ship's position is 29 days out of date.

Length 84 m; draft 6.8 m.

Type: Other ship. MMSI: 273350140.

Date/timePositionNaut miles runAvg speedWind from/ knotsBaromVisibWave heightAir tempDewpointWater temp
2014-Nov-23 11:32N 37°27' E 010°47'1512.4
2014-Nov-23 10:22N 37°31' E 010°30'1012.2
2014-Nov-23 09:31N 37°33' E 010°17'1612.4
2014-Nov-23 08:13N 37°34' E 009°57'912.3
2014-Nov-23 07:31N 37°35' E 009°46'1212.5
2014-Nov-23 06:33N 37°37' E 009°31'1212.4
2014-Nov-23 05:33N 37°38' E 009°15'1312.3
2014-Nov-23 04:29N 37°37' E 008°59'1312.3
2014-Nov-23 03:27N 37°37' E 008°43'1112.5
2014-Nov-23 02:33N 37°37' E 008°28'1312.5
2014-Nov-23 01:32N 37°36' E 008°12'1412.4
2014-Nov-23 00:24N 37°36' E 007°55'1612.3
2014-Nov-22 23:06N 37°36' E 007°34'712.4
2014-Nov-22 22:33N 37°36' E 007°26'37712.4
2014-Nov-21 16:12N 36°37' W 000°22'239 9.7
2014-Nov-20 15:33N 36°00' W 005°15'10 9.4
2014-Nov-20 14:32N 36°07' W 005°23'2 2.1
2014-Nov-20 13:27N 36°09' W 005°22'0 0.0
2014-Nov-20 09:18N 36°09' W 005°22'0 0.0
2014-Nov-20 08:21N 36°09' W 005°22'0 0.0
2014-Nov-20 07:21N 36°09' W 005°22'0 0.1
2014-Nov-20 05:27N 36°09' W 005°22'0 0.0
2014-Nov-20 04:27N 36°09' W 005°22'0 0.0
2014-Nov-20 03:30N 36°09' W 005°22'0 0.0
2014-Nov-20 02:33N 36°09' W 005°22'0 0.0
2014-Nov-20 01:33N 36°09' W 005°22'0 0.0
2014-Nov-20 00:33N 36°09' W 005°22'0 0.0
2014-Nov-19 23:33N 36°09' W 005°22'0 0.0
2014-Nov-19 22:33N 36°09' W 005°22'0 0.0
2014-Nov-19 21:33N 36°09' W 005°22'0 0.0
2014-Nov-19 20:27N 36°09' W 005°22'0 0.0
2014-Nov-19 19:33N 36°09' W 005°22'0 0.3
2014-Nov-19 18:33N 36°09' W 005°22'6 6.3
2014-Nov-19 17:33N 36°02' W 005°20'7 6.4
2014-Nov-19 16:32N 35°58' W 005°26'  

Dump ship's entire track history